sensor_id;sensor_type;location;lat;lon;timestamp;temperature;humidity
35305;DHT22;26433;48.034;-1.764;2023-07-29T00:03:39;19.60;99.80
35305;DHT22;26433;48.034;-1.764;2023-07-29T00:08:44;19.60;99.90
35305;DHT22;26433;48.034;-1.764;2023-07-29T00:13:48;19.60;99.90
35305;DHT22;26433;48.034;-1.764;2023-07-29T00:18:53;19.70;99.90
35305;DHT22;26433;48.034;-1.764;2023-07-29T00:23:58;19.70;99.90
35305;DHT22;26433;48.034;-1.764;2023-07-29T00:29:03;19.80;99.90
35305;DHT22;26433;48.034;-1.764;2023-07-29T00:34:06;19.80;99.90
35305;DHT22;26433;48.034;-1.764;2023-07-29T00:39:11;19.90;99.90
35305;DHT22;26433;48.034;-1.764;2023-07-29T00:44:15;19.90;99.90
35305;DHT22;26433;48.034;-1.764;2023-07-29T00:49:19;20.00;99.90
35305;DHT22;26433;48.034;-1.764;2023-07-29T00:54:24;20.00;99.90
35305;DHT22;26433;48.034;-1.764;2023-07-29T00:59:28;20.00;99.90
35305;DHT22;26433;48.034;-1.764;2023-07-29T01:04:32;20.00;99.90
35305;DHT22;26433;48.034;-1.764;2023-07-29T01:09:43;20.00;99.90
35305;DHT22;26433;48.034;-1.764;2023-07-29T01:14:55;20.10;99.90
35305;DHT22;26433;48.034;-1.764;2023-07-29T01:20:07;20.10;99.90
35305;DHT22;26433;48.034;-1.764;2023-07-29T01:25:13;20.10;99.90
35305;DHT22;26433;48.034;-1.764;2023-07-29T01:30:17;20.10;99.90
35305;DHT22;26433;48.034;-1.764;2023-07-29T01:35:23;20.10;99.90
35305;DHT22;26433;48.034;-1.764;2023-07-29T01:40:29;20.10;99.90
35305;DHT22;26433;48.034;-1.764;2023-07-29T01:45:33;20.10;99.90
35305;DHT22;26433;48.034;-1.764;2023-07-29T01:50:40;20.10;99.90
35305;DHT22;26433;48.034;-1.764;2023-07-29T01:55:45;20.10;99.90
35305;DHT22;26433;48.034;-1.764;2023-07-29T02:00:49;20.00;99.90
35305;DHT22;26433;48.034;-1.764;2023-07-29T02:05:53;20.00;99.90
35305;DHT22;26433;48.034;-1.764;2023-07-29T02:10:58;20.10;99.90
35305;DHT22;26433;48.034;-1.764;2023-07-29T02:16:01;20.10;99.90
35305;DHT22;26433;48.034;-1.764;2023-07-29T02:21:05;20.10;99.90
35305;DHT22;26433;48.034;-1.764;2023-07-29T02:26:10;20.10;99.90
35305;DHT22;26433;48.034;-1.764;2023-07-29T02:31:16;20.10;99.90
35305;DHT22;26433;48.034;-1.764;2023-07-29T02:36:20;20.20;99.90
35305;DHT22;26433;48.034;-1.764;2023-07-29T02:41:25;20.10;99.90
35305;DHT22;26433;48.034;-1.764;2023-07-29T02:46:29;20.00;99.90
35305;DHT22;26433;48.034;-1.764;2023-07-29T02:51:33;20.10;99.90
35305;DHT22;26433;48.034;-1.764;2023-07-29T02:56:38;20.10;99.90
35305;DHT22;26433;48.034;-1.764;2023-07-29T03:01:41;20.10;99.90
35305;DHT22;26433;48.034;-1.764;2023-07-29T03:06:45;20.20;99.90
35305;DHT22;26433;48.034;-1.764;2023-07-29T03:11:52;20.20;99.90
35305;DHT22;26433;48.034;-1.764;2023-07-29T03:16:57;20.20;99.90
35305;DHT22;26433;48.034;-1.764;2023-07-29T03:22:01;20.30;99.90
35305;DHT22;26433;48.034;-1.764;2023-07-29T03:27:06;20.20;99.90
35305;DHT22;26433;48.034;-1.764;2023-07-29T03:32:12;20.30;99.90
35305;DHT22;26433;48.034;-1.764;2023-07-29T03:37:15;20.30;99.90
35305;DHT22;26433;48.034;-1.764;2023-07-29T03:42:20;20.30;99.90
35305;DHT22;26433;48.034;-1.764;2023-07-29T03:47:24;20.30;99.90
35305;DHT22;26433;48.034;-1.764;2023-07-29T03:52:28;20.30;99.90
35305;DHT22;26433;48.034;-1.764;2023-07-29T03:57:33;20.30;99.90
35305;DHT22;26433;48.034;-1.764;2023-07-29T04:02:37;20.30;99.90
35305;DHT22;26433;48.034;-1.764;2023-07-29T04:12:47;20.30;99.90
35305;DHT22;26433;48.034;-1.764;2023-07-29T04:17:50;20.30;99.90
35305;DHT22;26433;48.034;-1.764;2023-07-29T04:22:54;20.30;99.90
35305;DHT22;26433;48.034;-1.764;2023-07-29T04:27:59;20.30;99.90
35305;DHT22;26433;48.034;-1.764;2023-07-29T04:33:05;20.30;99.90
35305;DHT22;26433;48.034;-1.764;2023-07-29T04:38:11;20.30;99.90
35305;DHT22;26433;48.034;-1.764;2023-07-29T04:43:16;20.30;99.90
35305;DHT22;26433;48.034;-1.764;2023-07-29T04:48:21;20.40;99.90
35305;DHT22;26433;48.034;-1.764;2023-07-29T04:53:25;20.40;99.90
35305;DHT22;26433;48.034;-1.764;2023-07-29T04:58:30;20.50;99.90
35305;DHT22;26433;48.034;-1.764;2023-07-29T05:03:37;20.40;99.90
35305;DHT22;26433;48.034;-1.764;2023-07-29T05:08:42;20.50;99.90
35305;DHT22;26433;48.034;-1.764;2023-07-29T05:13:47;20.50;99.90
35305;DHT22;26433;48.034;-1.764;2023-07-29T05:18:51;20.50;99.90
35305;DHT22;26433;48.034;-1.764;2023-07-29T05:23:54;20.50;99.90
35305;DHT22;26433;48.034;-1.764;2023-07-29T05:28:59;20.50;99.90
35305;DHT22;26433;48.034;-1.764;2023-07-29T05:34:03;20.50;99.90
35305;DHT22;26433;48.034;-1.764;2023-07-29T05:39:08;20.50;99.90
35305;DHT22;26433;48.034;-1.764;2023-07-29T05:44:13;20.50;99.90
35305;DHT22;26433;48.034;-1.764;2023-07-29T05:49:17;20.50;99.90
35305;DHT22;26433;48.034;-1.764;2023-07-29T05:54:21;20.50;99.90
35305;DHT22;26433;48.034;-1.764;2023-07-29T05:59:26;20.50;99.90
35305;DHT22;26433;48.034;-1.764;2023-07-29T06:04:31;20.50;99.90
35305;DHT22;26433;48.034;-1.764;2023-07-29T06:09:35;20.50;99.90
35305;DHT22;26433;48.034;-1.764;2023-07-29T06:14:40;20.60;99.90
35305;DHT22;26433;48.034;-1.764;2023-07-29T06:19:44;20.60;99.90
35305;DHT22;26433;48.034;-1.764;2023-07-29T06:24:47;20.60;99.90
35305;DHT22;26433;48.034;-1.764;2023-07-29T06:29:52;20.70;99.90
35305;DHT22;26433;48.034;-1.764;2023-07-29T06:34:56;20.70;99.90
35305;DHT22;26433;48.034;-1.764;2023-07-29T06:40:00;20.70;99.90
35305;DHT22;26433;48.034;-1.764;2023-07-29T06:45:06;20.80;99.90
35305;DHT22;26433;48.034;-1.764;2023-07-29T06:50:10;20.80;99.90
35305;DHT22;26433;48.034;-1.764;2023-07-29T06:55:14;20.80;99.90
35305;DHT22;26433;48.034;-1.764;2023-07-29T07:00:19;20.80;99.90
35305;DHT22;26433;48.034;-1.764;2023-07-29T07:05:23;20.90;99.90
35305;DHT22;26433;48.034;-1.764;2023-07-29T07:10:27;21.00;99.90
35305;DHT22;26433;48.034;-1.764;2023-07-29T07:15:32;21.10;99.90
35305;DHT22;26433;48.034;-1.764;2023-07-29T07:20:35;21.20;99.90
35305;DHT22;26433;48.034;-1.764;2023-07-29T07:25:39;21.20;99.90
35305;DHT22;26433;48.034;-1.764;2023-07-29T07:30:44;21.20;99.90
35305;DHT22;26433;48.034;-1.764;2023-07-29T07:40:55;21.40;99.90
35305;DHT22;26433;48.034;-1.764;2023-07-29T07:46:01;21.50;99.90
35305;DHT22;26433;48.034;-1.764;2023-07-29T07:51:11;21.60;99.90
35305;DHT22;26433;48.034;-1.764;2023-07-29T07:56:15;21.80;99.90
35305;DHT22;26433;48.034;-1.764;2023-07-29T08:01:20;22.00;99.90
35305;DHT22;26433;48.034;-1.764;2023-07-29T08:06:24;22.00;99.90
35305;DHT22;26433;48.034;-1.764;2023-07-29T08:11:27;22.10;99.90
35305;DHT22;26433;48.034;-1.764;2023-07-29T08:16:32;22.00;99.90
35305;DHT22;26433;48.034;-1.764;2023-07-29T08:21:36;22.10;99.90
35305;DHT22;26433;48.034;-1.764;2023-07-29T08:26:40;22.20;99.90
35305;DHT22;26433;48.034;-1.764;2023-07-29T08:31:45;22.20;99.90
35305;DHT22;26433;48.034;-1.764;2023-07-29T08:36:49;22.30;99.00
35305;DHT22;26433;48.034;-1.764;2023-07-29T08:41:56;22.80;96.10
35305;DHT22;26433;48.034;-1.764;2023-07-29T08:47:03;22.80;96.30
35305;DHT22;26433;48.034;-1.764;2023-07-29T08:52:07;23.10;95.10
35305;DHT22;26433;48.034;-1.764;2023-07-29T08:57:13;23.50;93.40
35305;DHT22;26433;48.034;-1.764;2023-07-29T09:02:19;23.80;92.00
35305;DHT22;26433;48.034;-1.764;2023-07-29T09:17:33;25.20;83.70
35305;DHT22;26433;48.034;-1.764;2023-07-29T09:22:36;25.10;84.10
35305;DHT22;26433;48.034;-1.764;2023-07-29T09:32:45;26.20;77.80
35305;DHT22;26433;48.034;-1.764;2023-07-29T09:37:50;26.40;76.60
35305;DHT22;26433;48.034;-1.764;2023-07-29T09:42:54;26.40;77.00
35305;DHT22;26433;48.034;-1.764;2023-07-29T09:47:59;26.70;75.60
35305;DHT22;26433;48.034;-1.764;2023-07-29T09:53:03;26.90;73.90
35305;DHT22;26433;48.034;-1.764;2023-07-29T09:58:07;27.00;72.80
35305;DHT22;26433;48.034;-1.764;2023-07-29T10:03:14;27.10;70.70
35305;DHT22;26433;48.034;-1.764;2023-07-29T10:13:22;27.20;69.70
35305;DHT22;26433;48.034;-1.764;2023-07-29T10:18:28;27.40;69.60
35305;DHT22;26433;48.034;-1.764;2023-07-29T10:23:34;27.80;67.70
35305;DHT22;26433;48.034;-1.764;2023-07-29T10:28:40;27.80;66.70
35305;DHT22;26433;48.034;-1.764;2023-07-29T10:33:47;27.80;67.20
35305;DHT22;26433;48.034;-1.764;2023-07-29T10:38:52;28.10;66.50
35305;DHT22;26433;48.034;-1.764;2023-07-29T10:43:56;28.40;65.20
35305;DHT22;26433;48.034;-1.764;2023-07-29T10:49:01;28.50;64.30
35305;DHT22;26433;48.034;-1.764;2023-07-29T10:54:12;28.70;63.70
35305;DHT22;26433;48.034;-1.764;2023-07-29T10:59:32;29.10;62.60
35305;DHT22;26433;48.034;-1.764;2023-07-29T11:04:46;28.80;61.90
35305;DHT22;26433;48.034;-1.764;2023-07-29T11:09:59;28.80;62.30
35305;DHT22;26433;48.034;-1.764;2023-07-29T11:15:06;28.60;62.70
35305;DHT22;26433;48.034;-1.764;2023-07-29T11:20:17;28.80;62.40
35305;DHT22;26433;48.034;-1.764;2023-07-29T11:25:22;28.40;61.70
35305;DHT22;26433;48.034;-1.764;2023-07-29T11:30:26;28.40;62.40
35305;DHT22;26433;48.034;-1.764;2023-07-29T11:35:33;28.00;62.80
35305;DHT22;26433;48.034;-1.764;2023-07-29T11:40:36;27.60;62.90
35305;DHT22;26433;48.034;-1.764;2023-07-29T11:50:55;26.90;63.50
35305;DHT22;26433;48.034;-1.764;2023-07-29T12:01:03;26.80;63.60
35305;DHT22;26433;48.034;-1.764;2023-07-29T12:06:08;26.90;63.50
35305;DHT22;26433;48.034;-1.764;2023-07-29T12:11:13;26.90;63.00
35305;DHT22;26433;48.034;-1.764;2023-07-29T12:21:22;26.70;62.70
35305;DHT22;26433;48.034;-1.764;2023-07-29T12:26:27;26.90;62.70
35305;DHT22;26433;48.034;-1.764;2023-07-29T12:31:31;26.90;62.90
35305;DHT22;26433;48.034;-1.764;2023-07-29T12:36:47;27.00;62.90
35305;DHT22;26433;48.034;-1.764;2023-07-29T12:41:52;27.10;62.60
35305;DHT22;26433;48.034;-1.764;2023-07-29T12:52:01;26.70;62.50
35305;DHT22;26433;48.034;-1.764;2023-07-29T12:57:06;26.50;63.30
35305;DHT22;26433;48.034;-1.764;2023-07-29T13:02:09;26.40;63.70
35305;DHT22;26433;48.034;-1.764;2023-07-29T13:07:14;26.20;64.00
35305;DHT22;26433;48.034;-1.764;2023-07-29T13:12:18;25.90;64.40
35305;DHT22;26433;48.034;-1.764;2023-07-29T13:22:26;25.70;64.10
35305;DHT22;26433;48.034;-1.764;2023-07-29T13:27:30;25.70;64.70
35305;DHT22;26433;48.034;-1.764;2023-07-29T13:32:34;25.80;64.40
35305;DHT22;26433;48.034;-1.764;2023-07-29T13:37:39;25.90;64.10
35305;DHT22;26433;48.034;-1.764;2023-07-29T13:42:42;26.10;63.70
35305;DHT22;26433;48.034;-1.764;2023-07-29T13:47:46;26.10;63.20
35305;DHT22;26433;48.034;-1.764;2023-07-29T13:52:51;26.00;63.50
35305;DHT22;26433;48.034;-1.764;2023-07-29T13:57:55;26.00;63.50
35305;DHT22;26433;48.034;-1.764;2023-07-29T14:02:58;26.10;63.30
35305;DHT22;26433;48.034;-1.764;2023-07-29T14:08:04;26.40;63.20
35305;DHT22;26433;48.034;-1.764;2023-07-29T14:13:07;26.40;63.20
35305;DHT22;26433;48.034;-1.764;2023-07-29T14:18:11;26.20;63.90
35305;DHT22;26433;48.034;-1.764;2023-07-29T14:23:16;26.20;64.20
35305;DHT22;26433;48.034;-1.764;2023-07-29T14:28:19;26.50;63.80
35305;DHT22;26433;48.034;-1.764;2023-07-29T14:33:23;26.60;63.50
35305;DHT22;26433;48.034;-1.764;2023-07-29T14:38:30;26.50;63.20
35305;DHT22;26433;48.034;-1.764;2023-07-29T14:48:37;26.30;62.90
35305;DHT22;26433;48.034;-1.764;2023-07-29T14:53:42;26.00;63.60
35305;DHT22;26433;48.034;-1.764;2023-07-29T14:58:46;26.00;63.90
35305;DHT22;26433;48.034;-1.764;2023-07-29T15:03:51;26.00;63.60
35305;DHT22;26433;48.034;-1.764;2023-07-29T15:08:56;26.10;63.60
35305;DHT22;26433;48.034;-1.764;2023-07-29T15:19:06;25.80;62.90
35305;DHT22;26433;48.034;-1.764;2023-07-29T15:24:11;25.60;63.60
35305;DHT22;26433;48.034;-1.764;2023-07-29T15:29:14;25.40;63.80
35305;DHT22;26433;48.034;-1.764;2023-07-29T15:39:23;25.00;63.90
35305;DHT22;26433;48.034;-1.764;2023-07-29T15:49:31;25.10;63.90
35305;DHT22;26433;48.034;-1.764;2023-07-29T15:54:36;25.20;64.40
35305;DHT22;26433;48.034;-1.764;2023-07-29T15:59:40;25.20;64.30
35305;DHT22;26433;48.034;-1.764;2023-07-29T16:04:44;25.30;64.20
35305;DHT22;26433;48.034;-1.764;2023-07-29T16:09:49;25.20;64.40
35305;DHT22;26433;48.034;-1.764;2023-07-29T16:14:52;25.10;64.70
35305;DHT22;26433;48.034;-1.764;2023-07-29T16:19:57;25.00;64.50
35305;DHT22;26433;48.034;-1.764;2023-07-29T16:25:03;24.90;64.90
35305;DHT22;26433;48.034;-1.764;2023-07-29T16:30:07;24.90;65.30
35305;DHT22;26433;48.034;-1.764;2023-07-29T16:35:11;24.80;65.60
35305;DHT22;26433;48.034;-1.764;2023-07-29T16:40:16;24.70;66.30
35305;DHT22;26433;48.034;-1.764;2023-07-29T16:55:29;23.20;70.70
35305;DHT22;26433;48.034;-1.764;2023-07-29T17:00:32;23.20;71.20
35305;DHT22;26433;48.034;-1.764;2023-07-29T17:05:36;22.80;73.00
35305;DHT22;26433;48.034;-1.764;2023-07-29T17:10:41;22.30;74.50
35305;DHT22;26433;48.034;-1.764;2023-07-29T17:15:44;22.00;76.00
35305;DHT22;26433;48.034;-1.764;2023-07-29T17:20:50;21.70;77.00
35305;DHT22;26433;48.034;-1.764;2023-07-29T17:25:55;21.60;77.90
35305;DHT22;26433;48.034;-1.764;2023-07-29T17:30:58;21.40;78.80
35305;DHT22;26433;48.034;-1.764;2023-07-29T17:36:02;21.20;79.70
35305;DHT22;26433;48.034;-1.764;2023-07-29T17:41:07;21.00;80.50
35305;DHT22;26433;48.034;-1.764;2023-07-29T17:46:11;20.90;81.50
35305;DHT22;26433;48.034;-1.764;2023-07-29T17:51:15;20.90;82.10
35305;DHT22;26433;48.034;-1.764;2023-07-29T17:56:20;20.90;82.30
35305;DHT22;26433;48.034;-1.764;2023-07-29T18:01:24;21.00;82.60
35305;DHT22;26433;48.034;-1.764;2023-07-29T18:06:28;21.00;83.00
35305;DHT22;26433;48.034;-1.764;2023-07-29T18:11:33;20.90;83.60
35305;DHT22;26433;48.034;-1.764;2023-07-29T18:16:36;20.80;84.80
35305;DHT22;26433;48.034;-1.764;2023-07-29T18:21:43;20.80;86.10
35305;DHT22;26433;48.034;-1.764;2023-07-29T18:26:48;20.70;86.40
35305;DHT22;26433;48.034;-1.764;2023-07-29T18:31:52;20.60;87.10
35305;DHT22;26433;48.034;-1.764;2023-07-29T18:36:55;20.60;87.70
35305;DHT22;26433;48.034;-1.764;2023-07-29T18:42:00;20.50;88.50
35305;DHT22;26433;48.034;-1.764;2023-07-29T18:47:05;20.50;89.00
35305;DHT22;26433;48.034;-1.764;2023-07-29T18:52:08;20.50;89.50
35305;DHT22;26433;48.034;-1.764;2023-07-29T18:57:13;20.20;90.50
35305;DHT22;26433;48.034;-1.764;2023-07-29T19:02:17;20.20;90.80
35305;DHT22;26433;48.034;-1.764;2023-07-29T19:07:23;20.20;91.10
35305;DHT22;26433;48.034;-1.764;2023-07-29T19:12:28;20.40;90.80
35305;DHT22;26433;48.034;-1.764;2023-07-29T19:17:32;20.30;91.00
35305;DHT22;26433;48.034;-1.764;2023-07-29T19:22:37;20.40;90.90
35305;DHT22;26433;48.034;-1.764;2023-07-29T19:27:42;20.40;90.90
35305;DHT22;26433;48.034;-1.764;2023-07-29T19:42:55;20.30;91.70
35305;DHT22;26433;48.034;-1.764;2023-07-29T19:53:06;20.30;92.00
35305;DHT22;26433;48.034;-1.764;2023-07-29T19:58:11;20.20;92.40
35305;DHT22;26433;48.034;-1.764;2023-07-29T20:13:23;20.00;93.10
35305;DHT22;26433;48.034;-1.764;2023-07-29T20:28:38;20.00;93.90
35305;DHT22;26433;48.034;-1.764;2023-07-29T20:33:42;20.00;94.20
35305;DHT22;26433;48.034;-1.764;2023-07-29T20:38:46;20.00;94.30
35305;DHT22;26433;48.034;-1.764;2023-07-29T20:43:52;20.10;94.50
35305;DHT22;26433;48.034;-1.764;2023-07-29T20:59:05;19.80;95.80
35305;DHT22;26433;48.034;-1.764;2023-07-29T21:14:18;19.80;95.60
35305;DHT22;26433;48.034;-1.764;2023-07-29T21:29:31;19.50;96.80
35305;DHT22;26433;48.034;-1.764;2023-07-29T21:44:44;19.40;97.40
35305;DHT22;26433;48.034;-1.764;2023-07-29T21:49:47;19.40;97.60
35305;DHT22;26433;48.034;-1.764;2023-07-29T21:54:51;19.40;97.50
35305;DHT22;26433;48.034;-1.764;2023-07-29T21:59:56;19.30;97.80
35305;DHT22;26433;48.034;-1.764;2023-07-29T22:05:00;19.20;98.00
35305;DHT22;26433;48.034;-1.764;2023-07-29T22:10:04;19.20;98.20
35305;DHT22;26433;48.034;-1.764;2023-07-29T22:15:09;19.20;98.30
35305;DHT22;26433;48.034;-1.764;2023-07-29T22:20:13;19.10;98.30
35305;DHT22;26433;48.034;-1.764;2023-07-29T22:25:17;19.00;98.50
35305;DHT22;26433;48.034;-1.764;2023-07-29T22:30:22;18.80;99.00
35305;DHT22;26433;48.034;-1.764;2023-07-29T22:35:28;18.70;99.30
35305;DHT22;26433;48.034;-1.764;2023-07-29T22:40:31;18.60;99.30
35305;DHT22;26433;48.034;-1.764;2023-07-29T22:45:36;18.50;99.20
35305;DHT22;26433;48.034;-1.764;2023-07-29T22:50:40;18.30;99.70
35305;DHT22;26433;48.034;-1.764;2023-07-29T22:55:44;18.10;99.90
35305;DHT22;26433;48.034;-1.764;2023-07-29T23:00:51;18.00;99.90
35305;DHT22;26433;48.034;-1.764;2023-07-29T23:05:55;17.90;99.90
35305;DHT22;26433;48.034;-1.764;2023-07-29T23:11:00;17.80;99.90
35305;DHT22;26433;48.034;-1.764;2023-07-29T23:16:06;17.70;99.90
35305;DHT22;26433;48.034;-1.764;2023-07-29T23:21:09;17.60;99.90
35305;DHT22;26433;48.034;-1.764;2023-07-29T23:26:13;17.60;99.80
35305;DHT22;26433;48.034;-1.764;2023-07-29T23:31:18;17.50;99.60
35305;DHT22;26433;48.034;-1.764;2023-07-29T23:36:22;17.50;99.40
35305;DHT22;26433;48.034;-1.764;2023-07-29T23:41:26;17.50;99.30
35305;DHT22;26433;48.034;-1.764;2023-07-29T23:46:30;17.50;99.10
35305;DHT22;26433;48.034;-1.764;2023-07-29T23:51:34;17.50;98.90
35305;DHT22;26433;48.034;-1.764;2023-07-29T23:56:38;17.50;98.90
